createdAt,value
2022-10-31T00:00:11.420Z,2.08
2022-10-31T00:03:21.729Z,3.88
2022-10-31T00:06:33.330Z,2.70
2022-10-31T00:09:38.141Z,4.40
2022-10-31T00:12:43.332Z,3.15
2022-10-31T00:15:46.766Z,6.18
2022-10-31T00:18:55.059Z,2.67
2022-10-31T00:22:01.054Z,2.90
2022-10-31T00:25:04.645Z,4.90
2022-10-31T00:28:09.070Z,7.22
2022-10-31T00:31:14.679Z,2.88
2022-10-31T00:34:18.488Z,5.78
2022-10-31T00:37:22.714Z,9.18
2022-10-31T00:40:26.543Z,3.00
2022-10-31T00:43:30.612Z,3.40
2022-10-31T00:46:34.531Z,6.55
2022-10-31T00:49:39.014Z,4.45
2022-10-31T00:52:42.951Z,6.05
2022-10-31T00:55:47.228Z,4.68
2022-10-31T00:58:51.585Z,2.80
2022-10-31T01:01:57.105Z,4.38
2022-10-31T01:05:00.732Z,6.15
2022-10-31T01:08:04.643Z,3.22
2022-10-31T01:11:18.555Z,4.40
2022-10-31T01:14:22.487Z,3.25
2022-10-31T01:17:26.988Z,1.88
2022-10-31T01:20:30.883Z,3.35
2022-10-31T01:23:35.935Z,2.63
2022-10-31T01:27:23.589Z,4.70
2022-10-31T01:33:22.472Z,4.00
2022-10-31T01:36:36.493Z,1.70
2022-10-31T01:39:40.477Z,2.42
2022-10-31T01:42:44.614Z,3.45
2022-10-31T01:45:55.429Z,5.30
2022-10-31T01:49:02.283Z,3.45
2022-10-31T01:52:12.446Z,2.65
2022-10-31T01:55:25.230Z,5.28
2022-10-31T01:58:34.058Z,3.63
2022-10-31T02:01:39.660Z,3.20
2022-10-31T02:04:45.176Z,6.63
2022-10-31T02:08:00.463Z,4.30
2022-10-31T02:11:05.878Z,9.98
2022-10-31T02:14:10.296Z,8.32
2022-10-31T02:17:15.039Z,4.25
2022-10-31T02:20:23.032Z,6.80
2022-10-31T02:23:43.002Z,3.63
2022-10-31T02:27:13.803Z,6.03
2022-10-31T02:30:25.516Z,5.20
2022-10-31T02:33:47.055Z,6.47
2022-10-31T02:37:10.210Z,6.10
2022-10-31T02:40:31.391Z,4.78
2022-10-31T02:44:18.677Z,3.38
2022-10-31T02:47:30.458Z,2.70
2022-10-31T02:50:39.394Z,4.82
2022-10-31T02:53:43.507Z,2.75
2022-10-31T02:56:48.723Z,3.05
2022-10-31T02:59:58.958Z,3.28
2022-10-31T03:03:21.072Z,4.35
2022-10-31T03:06:35.498Z,4.30
2022-10-31T03:10:04.298Z,3.08
2022-10-31T03:13:12.397Z,4.13
2022-10-31T03:16:46.474Z,5.47
2022-10-31T03:19:54.847Z,2.15
2022-10-31T03:23:03.193Z,3.10
2022-10-31T03:26:09.606Z,4.40
2022-10-31T03:29:17.088Z,3.05
2022-10-31T03:32:29.655Z,2.65
2022-10-31T03:35:35.287Z,4.38
2022-10-31T03:38:42.977Z,2.65
2022-10-31T03:41:51.706Z,2.72
2022-10-31T03:45:16.752Z,7.40
2022-10-31T03:48:22.028Z,2.20
2022-10-31T03:51:59.278Z,2.42
2022-10-31T03:55:22.274Z,2.25
2022-10-31T03:58:45.119Z,3.35
2022-10-31T04:01:54.469Z,3.15
2022-10-31T04:04:59.068Z,2.78
2022-10-31T04:08:06.621Z,3.28
2022-10-31T04:11:14.077Z,5.25
2022-10-31T04:14:19.072Z,3.45
2022-10-31T04:17:27.461Z,3.95
2022-10-31T04:20:41.598Z,2.20
2022-10-31T04:23:47.121Z,2.45
2022-10-31T04:26:55.600Z,2.70
2022-10-31T04:30:01.266Z,2.08
2022-10-31T04:33:08.075Z,2.55
2022-10-31T04:36:12.360Z,1.50
2022-10-31T04:39:16.630Z,2.63
2022-10-31T04:42:49.107Z,3.13
2022-10-31T04:45:53.506Z,1.40
2022-10-31T04:48:57.926Z,2.33
2022-10-31T04:52:02.176Z,1.98
2022-10-31T04:55:06.032Z,2.35
2022-10-31T04:58:39.430Z,2.72
2022-10-31T05:01:45.656Z,1.95
2022-10-31T05:04:50.141Z,2.60
2022-10-31T05:07:56.035Z,1.95
2022-10-31T05:11:04.671Z,3.47
2022-10-31T05:14:08.849Z,3.15
2022-10-31T05:17:50.750Z,2.92
2022-10-31T05:21:06.541Z,7.35
2022-10-31T05:24:12.552Z,2.90
2022-10-31T05:27:20.800Z,1.88
2022-10-31T05:30:32.073Z,4.90
2022-10-31T05:33:35.544Z,2.10
2022-10-31T05:37:01.522Z,4.13
2022-10-31T05:40:08.408Z,3.92
2022-10-31T05:43:12.093Z,3.88
2022-10-31T05:46:18.552Z,2.83
2022-10-31T05:49:40.772Z,2.33
2022-10-31T05:53:06.921Z,3.38
2022-10-31T05:56:13.296Z,4.68
2022-10-31T05:59:17.821Z,2.63
2022-10-31T06:02:22.657Z,2.25
2022-10-31T06:05:54.174Z,2.78
2022-10-31T06:09:02.271Z,2.35
2022-10-31T06:15:32.265Z,1.92
2022-10-31T06:18:36.132Z,3.03
2022-10-31T06:21:39.952Z,1.73
2022-10-31T06:24:44.227Z,3.65
2022-10-31T06:27:59.489Z,3.53
2022-10-31T06:31:12.140Z,5.38
2022-10-31T06:34:15.976Z,3.97
2022-10-31T06:37:18.956Z,3.47
2022-10-31T06:40:25.810Z,1.77
2022-10-31T06:43:49.231Z,3.13
2022-10-31T06:47:17.920Z,4.85
2022-10-31T06:50:39.915Z,3.63
2022-10-31T06:53:46.036Z,2.15
2022-10-31T06:56:52.515Z,5.15
2022-10-31T06:59:56.616Z,6.05
2022-10-31T07:03:17.032Z,1.65
2022-10-31T07:06:22.681Z,2.45
2022-10-31T07:09:25.782Z,2.13
2022-10-31T07:12:30.616Z,1.40
2022-10-31T07:15:37.737Z,4.97
2022-10-31T07:18:42.459Z,7.85
2022-10-31T07:21:48.489Z,3.42
2022-10-31T07:24:52.567Z,4.45
2022-10-31T07:28:14.032Z,1.90
2022-10-31T07:31:17.223Z,4.78
2022-10-31T07:34:20.324Z,4.82
2022-10-31T07:37:43.796Z,8.07
2022-10-31T07:40:53.414Z,2.45
2022-10-31T07:43:56.493Z,2.47
2022-10-31T07:47:17.845Z,2.58
2022-10-31T07:50:41.961Z,2.00
2022-10-31T07:54:04.090Z,4.82
2022-10-31T07:57:08.880Z,4.07
2022-10-31T08:00:14.499Z,3.58
2022-10-31T08:03:20.518Z,3.97
2022-10-31T08:06:41.646Z,7.93
2022-10-31T08:09:57.170Z,3.97
2022-10-31T08:13:13.254Z,6.80
2022-10-31T08:16:20.525Z,4.50
2022-10-31T08:19:31.413Z,3.50
2022-10-31T08:22:37.590Z,4.55
2022-10-31T08:25:44.224Z,3.33
2022-10-31T08:28:48.767Z,4.80
2022-10-31T08:31:52.089Z,5.07
2022-10-31T08:35:13.997Z,7.32
2022-10-31T08:38:35.818Z,3.97
2022-10-31T08:41:38.866Z,4.95
2022-10-31T08:44:47.819Z,13.60
2022-10-31T08:47:51.184Z,11.07
2022-10-31T08:51:01.794Z,11.88
2022-10-31T08:54:06.153Z,11.25
2022-10-31T08:57:11.841Z,17.13
2022-10-31T09:03:38.519Z,6.80
2022-10-31T09:06:50.386Z,4.18
2022-10-31T09:10:05.361Z,5.10
2022-10-31T09:13:30.119Z,8.77
2022-10-31T09:16:53.164Z,4.78
2022-10-31T09:20:01.155Z,3.63
2022-10-31T09:23:13.988Z,3.95
2022-10-31T09:26:18.137Z,4.88
2022-10-31T09:29:40.821Z,4.63
2022-10-31T09:32:47.617Z,7.97
2022-10-31T09:35:51.947Z,7.93
2022-10-31T09:38:56.394Z,16.40
2022-10-31T09:42:37.908Z,19.13
2022-10-31T09:46:11.823Z,19.33
2022-10-31T09:49:43.075Z,14.98
2022-10-31T09:53:02.722Z,20.40
2022-10-31T09:56:17.103Z,23.13
2022-10-31T09:59:28.506Z,14.05
2022-10-31T10:02:39.314Z,17.23
2022-10-31T10:05:54.118Z,13.75
2022-10-31T10:09:11.867Z,11.20
2022-10-31T10:13:05.001Z,13.63
2022-10-31T10:16:35.088Z,13.02
2022-10-31T10:23:25.184Z,16.98
2022-10-31T10:26:59.756Z,15.00
2022-10-31T10:30:23.940Z,15.10
2022-10-31T10:33:32.193Z,9.30
2022-10-31T10:36:36.576Z,12.25
2022-10-31T10:39:47.060Z,7.63
2022-10-31T10:43:20.644Z,13.60
2022-10-31T10:47:00.735Z,14.00
2022-10-31T10:50:26.322Z,11.85
2022-10-31T10:53:40.488Z,8.55
2022-10-31T10:57:39.460Z,11.98
2022-10-31T11:00:51.391Z,13.40
2022-10-31T11:03:56.523Z,11.25
2022-10-31T11:07:14.262Z,10.45
2022-10-31T11:10:18.889Z,6.75
2022-10-31T11:13:25.503Z,8.30
2022-10-31T11:16:41.861Z,9.18
2022-10-31T11:19:45.512Z,7.90
2022-10-31T11:22:50.429Z,11.70
2022-10-31T11:26:00.154Z,7.13
2022-10-31T11:29:07.370Z,3.45
2022-10-31T11:32:23.034Z,11.13
2022-10-31T11:35:27.973Z,10.88
2022-10-31T11:38:41.510Z,7.18
2022-10-31T11:41:46.141Z,8.38
2022-10-31T11:44:49.613Z,4.28
2022-10-31T11:47:59.881Z,9.65
2022-10-31T11:51:04.732Z,6.72
2022-10-31T11:54:22.232Z,5.75
2022-10-31T11:57:44.286Z,5.45
2022-10-31T12:00:52.869Z,7.65
2022-10-31T12:04:05.375Z,3.15
2022-10-31T12:07:09.813Z,5.75
2022-10-31T12:10:14.591Z,4.97
2022-10-31T12:13:53.949Z,3.60
2022-10-31T12:17:17.364Z,4.53
2022-10-31T12:20:46.990Z,3.92
2022-10-31T12:24:11.069Z,4.35
2022-10-31T12:27:19.878Z,4.57
2022-10-31T12:30:29.424Z,6.25
2022-10-31T12:33:57.803Z,8.40
2022-10-31T12:37:16.851Z,18.75
2022-10-31T12:41:02.290Z,9.73
2022-10-31T12:44:39.283Z,3.78
2022-10-31T12:47:57.930Z,3.35
2022-10-31T12:51:15.547Z,2.72
2022-10-31T12:57:43.396Z,12.48
2022-10-31T13:00:49.874Z,3.17
2022-10-31T13:04:20.544Z,4.70
2022-10-31T13:08:04.832Z,8.10
2022-10-31T13:11:20.414Z,13.98
2022-10-31T13:14:40.934Z,8.88
2022-10-31T13:17:49.688Z,8.75
2022-10-31T13:20:55.941Z,10.82
2022-10-31T13:24:02.941Z,9.00
2022-10-31T13:27:16.588Z,9.88
2022-10-31T13:30:25.432Z,4.10
2022-10-31T13:33:36.282Z,6.70
2022-10-31T13:36:53.591Z,7.30
2022-10-31T13:40:16.649Z,3.58
2022-10-31T13:43:43.572Z,5.15
2022-10-31T13:46:47.576Z,4.53
2022-10-31T13:49:50.755Z,7.05
2022-10-31T13:53:25.447Z,4.18
2022-10-31T13:56:32.666Z,4.60
2022-10-31T13:59:39.195Z,7.57
2022-10-31T14:02:50.045Z,6.80
2022-10-31T14:05:57.248Z,5.45
2022-10-31T14:09:01.045Z,5.63
2022-10-31T14:12:12.827Z,4.40
2022-10-31T14:15:28.322Z,4.60
2022-10-31T14:18:35.004Z,6.63
2022-10-31T14:21:46.922Z,4.47
2022-10-31T14:24:50.058Z,5.75
2022-10-31T14:27:55.874Z,7.57
2022-10-31T14:31:01.367Z,4.63
2022-10-31T14:34:32.496Z,6.90
2022-10-31T14:37:42.973Z,4.03
2022-10-31T14:41:17.606Z,3.13
2022-10-31T14:44:38.313Z,3.03
2022-10-31T14:48:16.119Z,2.13
2022-10-31T14:51:29.979Z,4.47
2022-10-31T14:54:39.647Z,3.50
2022-10-31T14:57:52.615Z,2.47
2022-10-31T15:00:59.269Z,5.88
2022-10-31T15:04:25.778Z,4.63
2022-10-31T15:07:32.423Z,7.20
2022-10-31T15:10:49.317Z,7.25
2022-10-31T15:14:16.550Z,3.67
2022-10-31T15:17:30.774Z,7.13
2022-10-31T15:20:46.341Z,8.32
2022-10-31T15:23:51.250Z,12.38
2022-10-31T15:26:59.687Z,9.10
2022-10-31T15:30:23.307Z,11.13
2022-10-31T15:33:48.359Z,13.00
2022-10-31T15:36:53.635Z,13.65
2022-10-31T15:40:09.094Z,9.52
2022-10-31T15:43:22.120Z,11.60
2022-10-31T15:46:32.891Z,10.80
2022-10-31T15:49:42.916Z,7.60
2022-10-31T15:52:52.841Z,7.72
2022-10-31T15:56:03.143Z,10.05
2022-10-31T15:59:24.108Z,5.53
2022-10-31T16:02:32.199Z,1.83
2022-10-31T16:05:52.808Z,3.70
2022-10-31T16:08:58.323Z,2.88
2022-10-31T16:12:02.562Z,2.38
2022-10-31T16:15:08.526Z,2.30
2022-10-31T16:18:13.859Z,3.85
2022-10-31T16:21:17.431Z,2.38
2022-10-31T16:24:31.492Z,0.77
2022-10-31T16:27:37.881Z,2.92
2022-10-31T16:30:48.474Z,4.25
2022-10-31T16:34:27.087Z,3.20
2022-10-31T16:37:30.805Z,1.15
2022-10-31T16:40:34.447Z,2.58
2022-10-31T16:43:38.793Z,4.47
2022-10-31T16:46:42.102Z,1.42
2022-10-31T16:49:49.616Z,2.30
2022-10-31T16:53:12.442Z,3.27
2022-10-31T16:56:24.655Z,2.75
2022-10-31T16:59:29.713Z,2.08
2022-10-31T17:02:34.452Z,2.08
2022-10-31T17:05:39.562Z,3.17
2022-10-31T17:08:43.504Z,2.28
2022-10-31T17:11:51.674Z,1.60
2022-10-31T17:14:55.611Z,2.30
2022-10-31T17:18:00.638Z,2.00
2022-10-31T17:21:06.927Z,2.63
2022-10-31T17:24:15.186Z,3.60
2022-10-31T17:27:19.695Z,2.92
2022-10-31T17:30:24.776Z,1.60
2022-10-31T17:33:28.931Z,3.50
2022-10-31T17:36:33.460Z,3.65
2022-10-31T17:39:37.185Z,4.30
2022-10-31T17:42:41.378Z,5.07
2022-10-31T17:45:45.259Z,6.05
2022-10-31T17:48:49.129Z,5.25
2022-10-31T17:51:52.629Z,4.18
2022-10-31T17:54:59.795Z,4.30
2022-10-31T17:58:04.347Z,4.07
2022-10-31T18:01:16.525Z,6.65
2022-10-31T18:04:20.415Z,4.80
2022-10-31T18:07:24.244Z,4.13
2022-10-31T18:10:27.728Z,5.35
2022-10-31T18:13:32.155Z,2.83
2022-10-31T18:19:41.017Z,2.80
2022-10-31T18:22:44.833Z,2.97
2022-10-31T18:25:49.353Z,2.92
2022-10-31T18:28:53.275Z,1.63
2022-10-31T18:31:58.302Z,2.78
2022-10-31T18:35:02.553Z,2.70
2022-10-31T18:38:08.104Z,3.17
2022-10-31T18:41:13.953Z,2.35
2022-10-31T18:44:18.396Z,2.67
2022-10-31T18:47:22.641Z,3.25
2022-10-31T18:50:27.285Z,3.15
2022-10-31T18:53:31.539Z,5.10
2022-10-31T18:56:35.297Z,2.47
2022-10-31T18:59:39.839Z,1.80
2022-10-31T19:02:43.546Z,2.65
2022-10-31T19:05:48.341Z,2.83
2022-10-31T19:08:58.771Z,2.33
2022-10-31T19:12:02.693Z,4.15
2022-10-31T19:15:07.119Z,3.60
2022-10-31T19:18:11.328Z,2.45
2022-10-31T19:21:19.305Z,2.78
2022-10-31T19:24:23.525Z,2.72
2022-10-31T19:27:28.765Z,4.07
2022-10-31T19:30:32.920Z,7.47
2022-10-31T19:33:36.684Z,3.00
2022-10-31T19:36:40.901Z,3.92
2022-10-31T19:39:44.514Z,5.13
2022-10-31T19:42:48.326Z,6.28
2022-10-31T19:45:59.622Z,10.95
2022-10-31T19:49:04.092Z,4.85
2022-10-31T19:52:08.030Z,5.35
2022-10-31T19:55:12.653Z,5.28
2022-10-31T19:58:16.174Z,5.88
2022-10-31T20:01:24.074Z,2.25
2022-10-31T20:04:27.884Z,5.80
2022-10-31T20:07:31.569Z,7.10
2022-10-31T20:10:35.116Z,5.82
2022-10-31T20:13:38.523Z,3.13
2022-10-31T20:16:43.206Z,7.72
2022-10-31T20:19:47.024Z,9.40
2022-10-31T20:22:51.451Z,3.72
2022-10-31T20:25:57.323Z,5.38
2022-10-31T20:29:02.647Z,5.57
2022-10-31T20:32:06.573Z,3.38
2022-10-31T20:35:10.888Z,3.45
2022-10-31T20:38:14.379Z,4.25
2022-10-31T20:41:18.493Z,3.50
2022-10-31T20:44:22.275Z,5.45
2022-10-31T20:47:26.409Z,2.53
2022-10-31T20:50:30.093Z,3.40
2022-10-31T20:53:35.171Z,5.15
2022-10-31T20:56:38.455Z,2.15
2022-10-31T20:59:41.938Z,1.95
2022-10-31T21:02:45.188Z,3.20
2022-10-31T21:06:00.485Z,4.03
2022-10-31T21:09:04.260Z,2.35
2022-10-31T21:12:08.386Z,4.45
2022-10-31T21:15:14.361Z,5.82
2022-10-31T21:18:18.190Z,6.28
2022-10-31T21:21:34.273Z,6.55
2022-10-31T21:24:38.507Z,8.05
2022-10-31T21:27:41.717Z,7.47
2022-10-31T21:30:48.950Z,6.38
2022-10-31T21:33:52.847Z,6.25
2022-10-31T21:36:57.053Z,3.63
2022-10-31T21:40:01.301Z,4.85
2022-10-31T21:43:05.049Z,4.78
2022-10-31T21:46:17.414Z,5.50
2022-10-31T21:49:21.175Z,5.38
2022-10-31T21:52:25.143Z,6.45
2022-10-31T21:55:29.473Z,6.07
2022-10-31T21:58:34.873Z,4.78
2022-10-31T22:01:42.304Z,6.30
2022-10-31T22:04:46.216Z,5.78
2022-10-31T22:07:50.138Z,6.00
2022-10-31T22:10:53.444Z,4.18
2022-10-31T22:13:57.697Z,4.45
2022-10-31T22:17:00.757Z,5.43
2022-10-31T22:20:04.791Z,5.75
2022-10-31T22:23:10.123Z,6.95
2022-10-31T22:26:15.558Z,5.65
2022-10-31T22:29:21.183Z,5.93
2022-10-31T22:32:24.469Z,3.30
2022-10-31T22:35:28.689Z,5.78
2022-10-31T22:38:40.588Z,8.30
2022-10-31T22:41:52.126Z,5.43
2022-10-31T22:44:57.193Z,6.97
2022-10-31T22:48:01.593Z,18.70
2022-10-31T22:51:08.736Z,11.82
2022-10-31T22:57:44.245Z,12.43
2022-10-31T23:00:49.124Z,11.50
2022-10-31T23:03:55.332Z,10.95
2022-10-31T23:06:59.884Z,10.00
2022-10-31T23:10:03.779Z,5.00
2022-10-31T23:13:32.973Z,5.32
2022-10-31T23:16:59.205Z,6.45
2022-10-31T23:20:14.564Z,3.75
2022-10-31T23:23:28.119Z,5.38
2022-10-31T23:26:58.762Z,6.82
2022-10-31T23:30:14.560Z,4.07
2022-10-31T23:33:31.554Z,3.85
2022-10-31T23:36:45.448Z,4.28
2022-10-31T23:40:00.596Z,6.00
2022-10-31T23:43:13.623Z,10.55
2022-10-31T23:46:25.823Z,11.18
2022-10-31T23:49:38.852Z,9.52
2022-10-31T23:52:58.630Z,10.35
2022-10-31T23:56:12.176Z,12.40
2022-10-31T23:59:29.168Z,11.25
